createdAt,value
2019-01-03T00:01:07.699Z,1.20
2019-01-03T00:04:06.106Z,1.20
2019-01-03T00:06:55.679Z,1.10
2019-01-03T00:09:59.980Z,0.83
2019-01-03T00:13:04.275Z,0.77
2019-01-03T00:16:09.643Z,0.97
2019-01-03T00:19:15.613Z,1.07
2019-01-03T00:22:21.291Z,1.00
2019-01-03T00:25:20.135Z,0.90
2019-01-03T00:28:15.771Z,0.80
2019-01-03T00:31:11.027Z,0.90
2019-01-03T00:34:06.055Z,1.30
2019-01-03T00:37:11.885Z,1.40
2019-01-03T00:40:02.054Z,0.90
2019-01-03T00:43:07.495Z,1.00
2019-01-03T00:46:02.574Z,1.03
2019-01-03T00:49:09.592Z,1.20
2019-01-03T00:52:01.515Z,1.00
2019-01-03T00:55:07.526Z,0.97
2019-01-03T00:57:57.139Z,0.90
2019-01-03T01:00:49.394Z,1.00
2019-01-03T01:03:54.952Z,1.13
2019-01-03T01:06:53.390Z,1.10
2019-01-03T01:09:43.130Z,0.90
2019-01-03T01:12:35.494Z,0.87
2019-01-03T01:15:31.316Z,1.20
2019-01-03T01:18:29.942Z,1.30
2019-01-03T01:21:22.763Z,0.93
2019-01-03T01:24:12.346Z,0.80
2019-01-03T01:27:14.442Z,1.20
2019-01-03T01:30:20.412Z,0.90
2019-01-03T01:33:12.759Z,0.90
2019-01-03T01:36:05.643Z,0.87
2019-01-03T01:39:06.985Z,1.30
2019-01-03T01:41:56.535Z,1.00
2019-01-03T01:44:46.005Z,1.00
2019-01-03T01:47:38.402Z,0.87
2019-01-03T01:50:30.981Z,1.10
2019-01-03T01:53:37.353Z,1.00
2019-01-03T01:56:27.090Z,1.30
2019-01-03T01:59:25.641Z,0.77
2019-01-03T02:02:18.391Z,0.93
2019-01-03T02:05:24.554Z,0.80
2019-01-03T02:08:13.886Z,1.07
2019-01-03T02:11:03.206Z,1.10
2019-01-03T02:13:58.677Z,1.03
2019-01-03T02:17:05.838Z,0.90
2019-01-03T02:20:11.510Z,1.20
2019-01-03T02:23:01.575Z,0.93
2019-01-03T02:25:57.494Z,1.07
2019-01-03T02:28:47.644Z,1.30
2019-01-03T02:31:53.930Z,1.07
2019-01-03T02:35:00.777Z,1.13
2019-01-03T02:37:56.823Z,1.17
2019-01-03T02:41:02.776Z,0.83
2019-01-03T02:44:08.842Z,0.80
2019-01-03T02:46:58.845Z,1.00
2019-01-03T02:50:04.678Z,1.13
2019-01-03T02:53:13.198Z,1.13
2019-01-03T02:56:05.219Z,1.23
2019-01-03T02:58:54.821Z,0.80
2019-01-03T03:01:46.646Z,0.73
2019-01-03T03:04:35.946Z,1.07
2019-01-03T03:07:37.266Z,0.90
2019-01-03T03:10:29.336Z,1.03
2019-01-03T03:13:19.502Z,0.93
2019-01-03T03:16:08.784Z,1.30
2019-01-03T03:19:01.378Z,1.13
2019-01-03T03:22:07.291Z,1.13
2019-01-03T03:24:59.438Z,0.97
2019-01-03T03:27:54.909Z,1.00
2019-01-03T03:31:00.926Z,1.20
2019-01-03T03:34:06.474Z,1.10
2019-01-03T03:36:56.023Z,1.00
2019-01-03T03:40:02.296Z,1.00
2019-01-03T03:42:51.899Z,0.80
2019-01-03T03:45:50.411Z,1.10
2019-01-03T03:48:45.759Z,1.10
2019-01-03T03:51:37.784Z,1.13
2019-01-03T03:54:33.489Z,0.83
2019-01-03T03:57:39.506Z,1.10
2019-01-03T04:00:45.429Z,0.80
2019-01-03T04:03:51.489Z,0.97
2019-01-03T04:06:57.723Z,1.33
2019-01-03T04:09:46.976Z,0.93
2019-01-03T04:12:39.465Z,0.80
2019-01-03T04:15:44.356Z,1.10
2019-01-03T04:18:36.551Z,1.00
2019-01-03T04:21:37.983Z,1.00
2019-01-03T04:24:36.941Z,0.80
2019-01-03T04:27:43.165Z,0.93
2019-01-03T04:30:32.510Z,1.33
2019-01-03T04:33:22.591Z,1.10
2019-01-03T04:36:18.100Z,0.80
2019-01-03T04:39:10.922Z,0.70
2019-01-03T04:42:17.321Z,1.53
2019-01-03T04:45:22.777Z,1.03
2019-01-03T04:48:12.643Z,0.97
2019-01-03T04:51:07.795Z,1.00
2019-01-03T04:54:00.058Z,0.80
2019-01-03T04:57:04.707Z,0.80
2019-01-03T05:00:09.478Z,0.83
2019-01-03T05:03:02.497Z,1.10
2019-01-03T05:06:07.286Z,1.20
2019-01-03T05:09:08.396Z,1.00
2019-01-03T05:12:01.308Z,0.70
2019-01-03T05:14:50.892Z,1.17
2019-01-03T05:17:40.912Z,1.20
2019-01-03T05:20:30.851Z,1.00
2019-01-03T05:23:23.541Z,0.73
2019-01-03T05:26:13.286Z,0.80
2019-01-03T05:29:03.011Z,0.70
2019-01-03T05:31:53.222Z,1.00
2019-01-03T05:34:59.276Z,0.60
2019-01-03T05:38:00.957Z,1.03
2019-01-03T05:40:50.480Z,0.80
2019-01-03T05:43:42.529Z,0.93
2019-01-03T05:46:37.856Z,1.30
2019-01-03T05:49:44.278Z,1.00
2019-01-03T05:52:43.121Z,0.90
2019-01-03T05:55:41.238Z,1.00
2019-01-03T05:58:43.330Z,0.90
2019-01-03T06:01:32.858Z,0.90
2019-01-03T06:04:37.926Z,0.90
2019-01-03T06:07:28.182Z,0.80
2019-01-03T06:10:20.350Z,1.07
2019-01-03T06:13:25.494Z,1.00
2019-01-03T06:16:30.275Z,0.87
2019-01-03T06:19:22.522Z,1.63
2019-01-03T06:22:14.979Z,0.87
2019-01-03T06:25:16.704Z,0.90
2019-01-03T06:28:08.744Z,1.20
2019-01-03T06:31:00.865Z,0.93
2019-01-03T06:34:02.451Z,1.20
2019-01-03T06:37:02.034Z,1.10
2019-01-03T06:39:57.452Z,1.20
2019-01-03T06:43:05.386Z,1.13
2019-01-03T06:46:07.490Z,1.20
2019-01-03T06:48:57.843Z,0.97
2019-01-03T06:52:02.942Z,1.43
2019-01-03T06:54:55.662Z,1.30
2019-01-03T06:58:01.263Z,1.00
2019-01-03T07:00:56.435Z,1.10
2019-01-03T07:04:02.048Z,1.13
2019-01-03T07:07:06.715Z,1.30
2019-01-03T07:09:56.741Z,1.20
2019-01-03T07:13:02.817Z,1.20
2019-01-03T07:15:58.165Z,1.10
2019-01-03T07:18:50.506Z,1.20
2019-01-03T07:21:56.557Z,1.17
2019-01-03T07:24:46.105Z,1.10
2019-01-03T07:27:35.369Z,0.93
2019-01-03T07:30:34.271Z,1.27
2019-01-03T07:33:32.904Z,1.10
2019-01-03T07:36:33.877Z,1.43
2019-01-03T07:39:23.762Z,1.10
2019-01-03T07:42:32.018Z,1.00
2019-01-03T07:45:22.599Z,1.20
2019-01-03T07:48:15.566Z,1.00
2019-01-03T07:51:21.281Z,1.10
2019-01-03T07:54:27.356Z,1.40
2019-01-03T07:57:29.420Z,1.43
2019-01-03T08:00:22.438Z,1.03
2019-01-03T08:03:17.575Z,1.67
2019-01-03T08:06:12.968Z,1.40
2019-01-03T08:09:04.939Z,1.40
2019-01-03T08:12:09.670Z,1.60
2019-01-03T08:15:05.503Z,1.30
2019-01-03T08:18:11.232Z,1.20
2019-01-03T08:21:00.981Z,1.40
2019-01-03T08:24:06.938Z,1.40
2019-01-03T08:27:12.750Z,1.77
2019-01-03T08:30:04.954Z,1.00
2019-01-03T08:33:11.158Z,1.57
2019-01-03T08:36:06.741Z,1.43
2019-01-03T08:38:59.117Z,1.60
2019-01-03T08:41:51.946Z,1.70
2019-01-03T08:44:42.456Z,2.20
2019-01-03T08:47:34.960Z,2.10
2019-01-03T08:50:39.235Z,1.77
2019-01-03T08:53:37.755Z,2.00
2019-01-03T08:56:27.140Z,2.40
2019-01-03T08:59:22.760Z,2.50
2019-01-03T09:02:15.457Z,2.20
2019-01-03T09:05:08.169Z,2.20
2019-01-03T09:08:12.208Z,2.70
2019-01-03T09:11:17.979Z,2.90
2019-01-03T09:14:16.152Z,2.20
2019-01-03T09:17:05.885Z,2.77
2019-01-03T09:20:13.961Z,2.40
2019-01-03T09:23:03.852Z,2.47
2019-01-03T09:25:54.205Z,2.70
2019-01-03T09:28:44.068Z,2.83
2019-01-03T09:31:50.574Z,3.10
2019-01-03T09:34:49.172Z,2.67
2019-01-03T09:37:44.851Z,2.00
2019-01-03T09:40:34.338Z,2.20
2019-01-03T09:43:23.608Z,2.73
2019-01-03T09:46:11.080Z,2.50
2019-01-03T09:48:58.737Z,2.80
2019-01-03T09:51:47.084Z,2.47
2019-01-03T09:54:35.316Z,2.50
2019-01-03T09:57:24.523Z,2.87
2019-01-03T10:00:13.233Z,3.00
2019-01-03T10:03:01.261Z,2.40
2019-01-03T10:05:49.032Z,2.43
2019-01-03T10:08:36.897Z,2.50
2019-01-03T10:11:25.209Z,3.27
2019-01-03T10:14:13.293Z,2.80
2019-01-03T10:17:01.366Z,2.60
2019-01-03T10:19:49.213Z,2.40
2019-01-03T10:22:37.206Z,2.67
2019-01-03T10:25:25.448Z,2.13
2019-01-03T10:28:13.463Z,3.13
2019-01-03T10:31:02.457Z,2.77
2019-01-03T10:33:50.234Z,2.60
2019-01-03T10:36:38.671Z,2.63
2019-01-03T10:39:26.799Z,2.40
2019-01-03T10:42:15.955Z,2.53
2019-01-03T10:45:04.109Z,2.40
2019-01-03T10:47:52.667Z,2.30
2019-01-03T10:50:41.485Z,2.10
2019-01-03T10:53:29.527Z,2.20
2019-01-03T10:56:17.703Z,2.33
2019-01-03T10:59:05.990Z,2.43
2019-01-03T11:01:53.953Z,2.70
2019-01-03T11:04:41.991Z,2.47
2019-01-03T11:07:29.924Z,2.13
2019-01-03T11:10:18.302Z,2.67
2019-01-03T11:13:06.248Z,2.23
2019-01-03T11:15:54.685Z,2.00
2019-01-03T11:18:43.057Z,2.50
2019-01-03T11:21:31.055Z,2.73
2019-01-03T11:24:19.755Z,2.30
2019-01-03T11:27:07.642Z,2.50
2019-01-03T11:29:55.491Z,2.50
2019-01-03T11:32:43.348Z,2.00
2019-01-03T11:35:31.401Z,2.23
2019-01-03T11:38:19.714Z,2.47
2019-01-03T11:41:07.897Z,2.40
2019-01-03T11:43:56.086Z,1.97
2019-01-03T11:46:44.240Z,2.27
2019-01-03T11:49:32.513Z,2.47
2019-01-03T11:52:20.482Z,2.20
2019-01-03T11:55:08.260Z,2.60
2019-01-03T11:57:56.906Z,2.00
2019-01-03T12:00:45.090Z,2.27
2019-01-03T12:03:34.330Z,1.73
2019-01-03T12:06:22.593Z,1.87
2019-01-03T12:09:11.536Z,1.67
2019-01-03T12:11:59.797Z,2.40
2019-01-03T12:14:47.523Z,1.60
2019-01-03T12:17:35.531Z,1.83
2019-01-03T12:20:24.322Z,2.10
2019-01-03T12:23:12.413Z,1.60
2019-01-03T12:26:00.314Z,1.53
2019-01-03T12:28:48.856Z,1.63
2019-01-03T12:31:36.741Z,1.80
2019-01-03T12:34:25.206Z,1.77
2019-01-03T12:37:13.429Z,1.67
2019-01-03T12:40:01.457Z,2.17
2019-01-03T12:42:49.244Z,2.07
2019-01-03T12:45:37.214Z,1.90
2019-01-03T12:48:25.964Z,1.83
2019-01-03T12:51:14.214Z,2.00
2019-01-03T12:54:01.903Z,2.23
2019-01-03T12:56:49.994Z,1.57
2019-01-03T12:59:38.228Z,1.80
2019-01-03T13:02:26.285Z,2.07
2019-01-03T13:05:14.706Z,1.80
2019-01-03T13:08:03.138Z,2.20
2019-01-03T13:10:51.982Z,1.50
2019-01-03T13:13:40.050Z,1.50
2019-01-03T13:16:28.356Z,1.67
2019-01-03T13:19:17.108Z,1.67
2019-01-03T13:22:05.310Z,1.80
2019-01-03T13:24:53.331Z,1.80
2019-01-03T13:27:41.656Z,1.93
2019-01-03T13:30:29.589Z,1.67
2019-01-03T13:33:17.865Z,1.57
2019-01-03T13:36:06.496Z,2.47
2019-01-03T13:38:54.595Z,1.70
2019-01-03T13:41:42.575Z,1.83
2019-01-03T13:44:30.708Z,1.40
2019-01-03T13:47:18.901Z,1.80
2019-01-03T13:50:07.665Z,1.70
2019-01-03T13:52:56.378Z,1.80
2019-01-03T13:55:44.690Z,1.30
2019-01-03T13:58:33.133Z,1.80
2019-01-03T14:01:21.625Z,1.80
2019-01-03T14:04:09.755Z,1.70
2019-01-03T14:06:57.896Z,1.53
2019-01-03T14:09:45.907Z,1.27
2019-01-03T14:12:34.066Z,1.80
2019-01-03T14:15:22.162Z,1.40
2019-01-03T14:18:09.961Z,1.30
2019-01-03T14:20:57.848Z,1.60
2019-01-03T14:23:45.970Z,1.40
2019-01-03T14:26:34.517Z,1.97
2019-01-03T14:29:23.268Z,1.63
2019-01-03T14:32:11.239Z,1.60
2019-01-03T14:34:59.357Z,1.60
2019-01-03T14:37:47.409Z,1.60
2019-01-03T14:40:35.535Z,1.83
2019-01-03T14:43:23.826Z,1.30
2019-01-03T14:46:12.235Z,1.50
2019-01-03T14:49:00.198Z,1.60
2019-01-03T14:51:48.315Z,1.70
2019-01-03T14:54:36.210Z,1.20
2019-01-03T14:57:25.782Z,2.30
2019-01-03T15:00:14.184Z,1.40
2019-01-03T15:03:02.928Z,1.43
2019-01-03T15:05:51.298Z,1.40
2019-01-03T15:08:39.054Z,1.77
2019-01-03T15:11:27.115Z,1.67
2019-01-03T15:14:15.003Z,1.60
2019-01-03T15:17:03.536Z,1.57
2019-01-03T15:19:51.936Z,1.60
2019-01-03T15:22:40.047Z,1.60
2019-01-03T15:25:28.150Z,1.60
2019-01-03T15:28:16.519Z,1.50
2019-01-03T15:31:04.664Z,1.70
2019-01-03T15:33:52.644Z,2.17
2019-01-03T15:36:40.746Z,1.50
2019-01-03T15:39:28.919Z,1.70
2019-01-03T15:42:17.241Z,3.00
2019-01-03T15:45:07.478Z,1.43
2019-01-03T15:47:55.590Z,1.40
2019-01-03T15:50:43.703Z,1.77
2019-01-03T15:53:31.484Z,1.67
2019-01-03T15:56:20.361Z,1.40
2019-01-03T15:59:08.579Z,1.43
2019-01-03T16:01:56.287Z,1.30
2019-01-03T16:04:44.254Z,2.73
2019-01-03T16:07:32.137Z,1.47
2019-01-03T16:10:20.154Z,2.03
2019-01-03T16:13:08.120Z,1.80
2019-01-03T16:15:56.184Z,1.60
2019-01-03T16:18:44.498Z,1.70
2019-01-03T16:21:32.597Z,1.80
2019-01-03T16:24:20.655Z,1.80
2019-01-03T16:27:09.000Z,2.20
2019-01-03T16:29:57.285Z,2.27
2019-01-03T16:32:45.139Z,1.93
2019-01-03T16:35:33.356Z,2.40
2019-01-03T16:38:21.678Z,1.90
2019-01-03T16:41:10.710Z,2.37
2019-01-03T16:43:59.229Z,2.07
2019-01-03T16:46:47.367Z,1.80
2019-01-03T16:49:35.610Z,2.27
2019-01-03T16:52:23.687Z,2.17
2019-01-03T16:55:11.927Z,1.80
2019-01-03T16:58:00.210Z,1.93
2019-01-03T17:00:48.422Z,1.60
2019-01-03T17:03:36.486Z,1.60
2019-01-03T17:06:25.390Z,1.90
2019-01-03T17:09:13.433Z,1.70
2019-01-03T17:12:01.094Z,1.90
2019-01-03T17:14:48.852Z,1.70
2019-01-03T17:17:38.243Z,1.70
2019-01-03T17:20:26.515Z,1.93
2019-01-03T17:23:15.330Z,1.63
2019-01-03T17:26:03.493Z,1.40
2019-01-03T17:28:51.000Z,1.93
2019-01-03T17:31:39.312Z,2.03
2019-01-03T17:34:27.432Z,1.40
2019-01-03T17:37:15.789Z,1.80
2019-01-03T17:40:04.754Z,1.97
2019-01-03T17:42:53.348Z,1.33
2019-01-03T17:45:41.170Z,1.87
2019-01-03T17:48:29.202Z,1.70
2019-01-03T17:51:17.550Z,2.27
2019-01-03T17:54:06.000Z,1.73
2019-01-03T17:56:54.608Z,1.30
2019-01-03T17:59:42.776Z,2.00
2019-01-03T18:02:30.720Z,2.03
2019-01-03T18:05:18.771Z,2.17
2019-01-03T18:08:07.084Z,2.23
2019-01-03T18:10:55.012Z,2.23
2019-01-03T18:13:43.236Z,2.23
2019-01-03T18:16:31.091Z,3.03
2019-01-03T18:19:19.453Z,2.50
2019-01-03T18:22:07.877Z,2.27
2019-01-03T18:24:55.557Z,2.77
2019-01-03T18:27:43.301Z,2.30
2019-01-03T18:30:31.581Z,2.03
2019-01-03T18:33:19.691Z,2.67
2019-01-03T18:36:07.906Z,1.80
2019-01-03T18:38:56.312Z,2.07
2019-01-03T18:41:44.733Z,2.23
2019-01-03T18:44:32.744Z,2.30
2019-01-03T18:47:20.796Z,2.33
2019-01-03T18:50:08.811Z,2.10
2019-01-03T18:52:56.921Z,2.10
2019-01-03T18:55:45.086Z,2.50
2019-01-03T18:58:33.081Z,2.10
2019-01-03T19:01:21.373Z,2.33
2019-01-03T19:04:09.403Z,2.60
2019-01-03T19:06:57.666Z,2.70
2019-01-03T19:09:46.031Z,2.37
2019-01-03T19:12:33.734Z,2.50
2019-01-03T19:15:22.108Z,2.47
2019-01-03T19:18:10.044Z,2.40
2019-01-03T19:20:57.769Z,2.30
2019-01-03T19:23:45.663Z,2.43
2019-01-03T19:26:33.817Z,2.50
2019-01-03T19:29:22.191Z,2.47
2019-01-03T19:32:10.367Z,2.40
2019-01-03T19:34:58.967Z,2.33
2019-01-03T19:37:47.353Z,2.30
2019-01-03T19:40:35.850Z,2.50
2019-01-03T19:43:23.702Z,2.50
2019-01-03T19:46:11.768Z,2.50
2019-01-03T19:49:00.628Z,2.40
2019-01-03T19:51:48.917Z,2.50
2019-01-03T19:54:36.845Z,2.50
2019-01-03T19:57:25.197Z,2.67
2019-01-03T20:00:14.809Z,2.30
2019-01-03T20:03:04.983Z,2.50
2019-01-03T20:05:53.131Z,2.50
2019-01-03T20:08:41.057Z,2.20
2019-01-03T20:11:29.524Z,2.43
2019-01-03T20:14:18.449Z,2.17
2019-01-03T20:17:07.549Z,2.30
2019-01-03T20:19:56.512Z,2.23
2019-01-03T20:22:46.223Z,2.50
2019-01-03T20:25:34.660Z,2.50
2019-01-03T20:28:24.004Z,2.20
2019-01-03T20:31:12.421Z,2.30
2019-01-03T20:34:00.580Z,2.13
2019-01-03T20:36:49.953Z,2.20
2019-01-03T20:39:39.104Z,2.17
2019-01-03T20:42:27.873Z,2.50
2019-01-03T20:45:16.259Z,2.03
2019-01-03T20:48:04.772Z,2.87
2019-01-03T20:50:55.569Z,2.50
2019-01-03T20:53:44.044Z,2.23
2019-01-03T20:56:32.565Z,2.20
2019-01-03T20:59:21.131Z,3.20
2019-01-03T21:02:09.352Z,1.90
2019-01-03T21:04:57.341Z,2.00
2019-01-03T21:07:45.657Z,2.00
2019-01-03T21:10:34.301Z,2.33
2019-01-03T21:13:22.874Z,2.10
2019-01-03T21:16:10.784Z,1.83
2019-01-03T21:18:58.940Z,1.87
2019-01-03T21:21:46.989Z,1.83
2019-01-03T21:24:35.631Z,1.83
2019-01-03T21:27:23.772Z,2.43
2019-01-03T21:30:13.845Z,1.70
2019-01-03T21:33:05.666Z,2.27
2019-01-03T21:35:53.045Z,1.80
2019-01-03T21:38:41.896Z,1.60
2019-01-03T21:41:29.954Z,1.63
2019-01-03T21:44:18.367Z,1.80
2019-01-03T21:47:06.421Z,1.60
2019-01-03T21:49:55.284Z,1.80
2019-01-03T21:52:43.721Z,1.70
2019-01-03T21:55:32.277Z,2.07
2019-01-03T21:58:20.991Z,1.43
2019-01-03T22:01:09.328Z,1.60
2019-01-03T22:03:57.637Z,1.50
2019-01-03T22:06:46.207Z,1.60
2019-01-03T22:09:34.515Z,2.07
2019-01-03T22:12:23.060Z,1.90
2019-01-03T22:15:11.706Z,2.00
2019-01-03T22:17:59.994Z,1.40
2019-01-03T22:20:47.716Z,1.47
2019-01-03T22:23:37.526Z,1.90
2019-01-03T22:26:26.113Z,1.57
2019-01-03T22:29:14.332Z,1.83
2019-01-03T22:32:02.487Z,1.37
2019-01-03T22:34:50.873Z,1.47
2019-01-03T22:37:39.017Z,1.63
2019-01-03T22:40:27.456Z,1.70
2019-01-03T22:43:15.594Z,1.60
2019-01-03T22:46:03.688Z,1.43
2019-01-03T22:48:51.267Z,1.50
2019-01-03T22:51:39.311Z,1.63
2019-01-03T22:54:27.657Z,1.77
2019-01-03T22:57:15.769Z,1.20
2019-01-03T23:00:07.405Z,1.80
2019-01-03T23:02:55.611Z,1.40
2019-01-03T23:05:43.531Z,1.30
2019-01-03T23:08:31.637Z,1.70
2019-01-03T23:11:20.003Z,1.20
2019-01-03T23:14:08.384Z,1.50
2019-01-03T23:16:56.685Z,1.40
2019-01-03T23:19:45.098Z,1.30
2019-01-03T23:22:33.270Z,1.53
2019-01-03T23:25:21.435Z,1.17
2019-01-03T23:28:09.407Z,1.60
2019-01-03T23:30:57.035Z,1.17
2019-01-03T23:33:46.055Z,1.17
2019-01-03T23:36:34.133Z,1.80
2019-01-03T23:39:22.568Z,1.27
2019-01-03T23:42:10.681Z,1.20
2019-01-03T23:45:15.355Z,1.30
2019-01-03T23:48:03.414Z,2.20
2019-01-03T23:50:51.466Z,1.50
2019-01-03T23:53:39.295Z,1.30
2019-01-03T23:56:27.583Z,1.70
2019-01-03T23:59:15.528Z,1.33
